sensor_id;sensor_type;location;lat;lon;timestamp;temperature;humidity
40249;DHT22;25969;49.970;11.062;2024-03-25T05:01:11;4.20;99.90
40249;DHT22;25969;49.970;11.062;2024-03-25T05:11:11;4.20;99.90
40249;DHT22;25969;49.970;11.062;2024-03-25T05:21:12;4.20;99.90
40249;DHT22;25969;49.970;11.062;2024-03-25T05:31:13;4.10;99.90
40249;DHT22;25969;49.970;11.062;2024-03-25T05:41:14;4.20;99.90
40249;DHT22;25969;49.970;11.062;2024-03-25T05:51:15;4.20;99.90
40249;DHT22;25969;49.970;11.062;2024-03-25T06:01:15;4.20;99.90
40249;DHT22;25969;49.970;11.062;2024-03-25T06:11:16;4.30;99.90
40249;DHT22;25969;49.970;11.062;2024-03-25T06:21:18;4.30;99.90
40249;DHT22;25969;49.970;11.062;2024-03-25T06:31:18;4.50;99.90
40249;DHT22;25969;49.970;11.062;2024-03-25T06:41:37;4.60;99.90
40249;DHT22;25969;49.970;11.062;2024-03-25T06:51:38;4.80;99.90
40249;DHT22;25969;49.970;11.062;2024-03-25T07:01:38;4.80;99.90
40249;DHT22;25969;49.970;11.062;2024-03-25T07:11:39;4.90;99.90
40249;DHT22;25969;49.970;11.062;2024-03-25T07:21:43;5.00;99.90
40249;DHT22;25969;49.970;11.062;2024-03-25T07:31:43;5.30;99.90
40249;DHT22;25969;49.970;11.062;2024-03-25T07:41:44;5.30;99.90
40249;DHT22;25969;49.970;11.062;2024-03-25T07:51:45;5.40;99.90
40249;DHT22;25969;49.970;11.062;2024-03-25T08:01:45;5.30;99.90
40249;DHT22;25969;49.970;11.062;2024-03-25T08:11:46;5.30;99.90
40249;DHT22;25969;49.970;11.062;2024-03-25T08:21:46;5.50;99.90
40249;DHT22;25969;49.970;11.062;2024-03-25T08:31:47;5.90;99.90
40249;DHT22;25969;49.970;11.062;2024-03-25T08:41:47;6.10;99.90
40249;DHT22;25969;49.970;11.062;2024-03-25T08:51:48;6.20;99.90
40249;DHT22;25969;49.970;11.062;2024-03-25T09:01:49;6.40;99.90
40249;DHT22;25969;49.970;11.062;2024-03-25T09:11:49;6.40;99.90
40249;DHT22;25969;49.970;11.062;2024-03-25T09:21:50;6.30;99.90
40249;DHT22;25969;49.970;11.062;2024-03-25T09:31:51;6.50;99.90
40249;DHT22;25969;49.970;11.062;2024-03-25T09:41:53;7.10;99.90
40249;DHT22;25969;49.970;11.062;2024-03-25T09:51:55;7.50;98.70
40249;DHT22;25969;49.970;11.062;2024-03-25T10:01:56;9.70;96.00
40249;DHT22;25969;49.970;11.062;2024-03-25T10:11:58;10.30;90.90
40249;DHT22;25969;49.970;11.062;2024-03-25T10:22:05;10.50;90.50
40249;DHT22;25969;49.970;11.062;2024-03-25T10:32:06;10.80;82.70
40249;DHT22;25969;49.970;11.062;2024-03-25T10:42:06;9.20;85.00
40249;DHT22;25969;49.970;11.062;2024-03-25T10:52:07;10.70;78.70
40249;DHT22;25969;49.970;11.062;2024-03-25T11:02:09;10.70;72.60
40249;DHT22;25969;49.970;11.062;2024-03-25T11:12:10;10.40;76.70
40249;DHT22;25969;49.970;11.062;2024-03-25T11:22:11;12.60;70.70
40249;DHT22;25969;49.970;11.062;2024-03-25T11:32:12;13.30;68.20
40249;DHT22;25969;49.970;11.062;2024-03-25T11:42:14;13.80;60.90
40249;DHT22;25969;49.970;11.062;2024-03-25T11:52:15;10.90;63.40
40249;DHT22;25969;49.970;11.062;2024-03-25T12:02:17;11.30;66.50
40249;DHT22;25969;49.970;11.062;2024-03-25T12:12:17;11.70;65.40
40249;DHT22;25969;49.970;11.062;2024-03-25T12:22:18;17.40;51.20
40249;DHT22;25969;49.970;11.062;2024-03-25T12:32:18;20.80;42.70
40249;DHT22;25969;49.970;11.062;2024-03-25T12:42:20;16.60;49.20
40249;DHT22;25969;49.970;11.062;2024-03-25T12:52:20;18.70;47.40
40249;DHT22;25969;49.970;11.062;2024-03-25T13:02:21;15.70;49.30
40249;DHT22;25969;49.970;11.062;2024-03-25T13:12:24;17.50;47.30
40249;DHT22;25969;49.970;11.062;2024-03-25T13:22:24;18.90;41.10
40249;DHT22;25969;49.970;11.062;2024-03-25T13:32:25;15.80;49.80
40249;DHT22;25969;49.970;11.062;2024-03-25T13:42:26;16.10;47.00
40249;DHT22;25969;49.970;11.062;2024-03-25T13:52:26;15.80;44.80
40249;DHT22;25969;49.970;11.062;2024-03-25T14:02:27;19.90;39.40
40249;DHT22;25969;49.970;11.062;2024-03-25T14:12:28;19.00;45.80
40249;DHT22;25969;49.970;11.062;2024-03-25T14:22:29;15.90;45.70
40249;DHT22;25969;49.970;11.062;2024-03-25T14:32:29;18.60;41.20
40249;DHT22;25969;49.970;11.062;2024-03-25T14:42:30;19.10;41.00
40249;DHT22;25969;49.970;11.062;2024-03-25T14:52:32;17.50;44.90
40249;DHT22;25969;49.970;11.062;2024-03-25T15:02:33;15.80;46.80
40249;DHT22;25969;49.970;11.062;2024-03-25T15:12:34;16.00;46.20
40249;DHT22;25969;49.970;11.062;2024-03-25T15:22:34;16.30;45.40
40249;DHT22;25969;49.970;11.062;2024-03-25T15:32:35;16.60;44.70
40249;DHT22;25969;49.970;11.062;2024-03-25T15:42:35;16.20;45.10
40249;DHT22;25969;49.970;11.062;2024-03-25T15:52:36;13.70;47.00
40249;DHT22;25969;49.970;11.062;2024-03-25T16:02:37;12.20;54.30
40249;DHT22;25969;49.970;11.062;2024-03-25T16:12:38;13.00;52.20
40249;DHT22;25969;49.970;11.062;2024-03-25T16:22:38;12.70;52.00
40249;DHT22;25969;49.970;11.062;2024-03-25T16:32:39;11.60;54.40
40249;DHT22;25969;49.970;11.062;2024-03-25T16:42:40;11.10;55.60
40249;DHT22;25969;49.970;11.062;2024-03-25T16:52:41;10.70;57.70
40249;DHT22;25969;49.970;11.062;2024-03-25T17:02:45;10.40;56.90
40249;DHT22;25969;49.970;11.062;2024-03-25T17:12:46;9.50;58.60
40249;DHT22;25969;49.970;11.062;2024-03-25T17:22:49;8.80;62.30
40249;DHT22;25969;49.970;11.062;2024-03-25T17:32:49;8.30;64.60
40249;DHT22;25969;49.970;11.062;2024-03-25T17:42:50;7.80;65.50
40249;DHT22;25969;49.970;11.062;2024-03-25T17:52:51;7.40;66.90
40249;DHT22;25969;49.970;11.062;2024-03-25T18:02:51;6.80;70.00
40249;DHT22;25969;49.970;11.062;2024-03-25T18:12:54;6.60;70.40
40249;DHT22;25969;49.970;11.062;2024-03-25T18:22:54;6.30;71.60
40249;DHT22;25969;49.970;11.062;2024-03-25T18:32:55;6.20;71.10
40249;DHT22;25969;49.970;11.062;2024-03-25T18:42:56;6.20;71.10
40249;DHT22;25969;49.970;11.062;2024-03-25T18:52:56;6.10;71.40
40249;DHT22;25969;49.970;11.062;2024-03-25T19:02:57;5.90;73.40
40249;DHT22;25969;49.970;11.062;2024-03-25T19:12:57;5.80;73.40
40249;DHT22;25969;49.970;11.062;2024-03-25T19:22:58;5.60;74.30
40249;DHT22;25969;49.970;11.062;2024-03-25T19:32:59;5.20;75.70
40249;DHT22;25969;49.970;11.062;2024-03-25T19:42:59;4.70;80.50
40249;DHT22;25969;49.970;11.062;2024-03-25T19:53:00;4.70;79.20
40249;DHT22;25969;49.970;11.062;2024-03-25T20:03:01;4.70;79.70
40249;DHT22;25969;49.970;11.062;2024-03-25T20:13:01;4.40;82.60
40249;DHT22;25969;49.970;11.062;2024-03-25T20:23:02;4.30;82.40
40249;DHT22;25969;49.970;11.062;2024-03-25T20:33:03;4.20;84.30
40249;DHT22;25969;49.970;11.062;2024-03-25T20:43:04;4.30;84.20
40249;DHT22;25969;49.970;11.062;2024-03-25T20:53:05;4.40;84.10
40249;DHT22;25969;49.970;11.062;2024-03-25T21:03:06;4.70;83.60
40249;DHT22;25969;49.970;11.062;2024-03-25T21:13:06;4.50;84.00
40249;DHT22;25969;49.970;11.062;2024-03-25T21:23:07;4.30;85.40
40249;DHT22;25969;49.970;11.062;2024-03-25T21:33:08;4.10;86.30
40249;DHT22;25969;49.970;11.062;2024-03-25T21:43:09;4.00;87.30
40249;DHT22;25969;49.970;11.062;2024-03-25T21:53:09;3.90;87.50
40249;DHT22;25969;49.970;11.062;2024-03-25T22:03:10;3.90;88.10
40249;DHT22;25969;49.970;11.062;2024-03-25T22:13:11;3.60;90.00
40249;DHT22;25969;49.970;11.062;2024-03-25T22:23:11;3.40;90.20
40249;DHT22;25969;49.970;11.062;2024-03-25T22:33:12;3.60;90.10
40249;DHT22;25969;49.970;11.062;2024-03-25T22:43:12;3.50;90.20
40249;DHT22;25969;49.970;11.062;2024-03-25T22:53:13;3.20;90.90
